createdAt,value
2019-05-05T00:01:14.728Z,22.50
2019-05-05T00:03:47.852Z,21.17
2019-05-05T00:06:19.955Z,21.48
2019-05-05T00:08:51.712Z,22.35
2019-05-05T00:11:36.688Z,24.72
2019-05-05T00:14:12.340Z,21.23
2019-05-05T00:16:48.403Z,24.45
2019-05-05T00:19:30.663Z,29.42
2019-05-05T00:21:52.749Z,26.48
2019-05-05T00:24:24.446Z,26.65
2019-05-05T00:26:55.864Z,21.97
2019-05-05T00:29:27.257Z,20.43
2019-05-05T00:31:58.836Z,27.98
2019-05-05T00:34:30.443Z,24.23
2019-05-05T00:37:04.450Z,24.55
2019-05-05T00:39:34.883Z,24.45
2019-05-05T00:42:06.804Z,28.30
2019-05-05T00:44:37.993Z,25.72
2019-05-05T00:47:29.621Z,27.85
2019-05-05T00:50:02.135Z,30.00
2019-05-05T00:52:35.174Z,34.18
2019-05-05T00:55:09.737Z,29.70
2019-05-05T00:57:41.271Z,30.97
2019-05-05T01:00:20.364Z,34.10
2019-05-05T01:02:54.166Z,36.03
2019-05-05T01:05:34.394Z,34.10
2019-05-05T01:08:07.664Z,31.30
2019-05-05T01:10:39.432Z,30.55
2019-05-05T01:13:11.165Z,35.58
2019-05-05T01:15:42.445Z,30.27
2019-05-05T01:18:15.243Z,29.42
2019-05-05T01:20:46.678Z,31.73
2019-05-05T01:23:18.307Z,33.65
2019-05-05T01:25:51.350Z,35.28
2019-05-05T01:28:24.938Z,35.80
2019-05-05T01:30:57.388Z,32.28
2019-05-05T01:33:39.622Z,27.82
2019-05-05T01:36:10.918Z,35.55
2019-05-05T01:38:56.202Z,25.55
2019-05-05T01:44:06.439Z,37.23
2019-05-05T01:46:38.017Z,37.05
2019-05-05T01:49:09.545Z,29.40
2019-05-05T01:51:41.057Z,32.00
2019-05-05T01:54:14.466Z,36.95
2019-05-05T01:56:45.754Z,33.70
2019-05-05T01:59:17.318Z,36.70
2019-05-05T02:01:50.504Z,44.33
2019-05-05T02:04:21.974Z,35.95
2019-05-05T02:06:54.956Z,39.08
2019-05-05T02:09:26.712Z,39.48
2019-05-05T02:11:57.995Z,32.50
2019-05-05T02:14:29.496Z,36.55
2019-05-05T02:17:01.114Z,36.68
2019-05-05T02:19:32.423Z,35.85
2019-05-05T02:22:05.333Z,36.90
2019-05-05T02:24:36.874Z,40.35
2019-05-05T02:27:08.631Z,25.75
2019-05-05T02:29:44.749Z,32.80
2019-05-05T02:32:25.739Z,38.65
2019-05-05T02:34:58.257Z,40.70
2019-05-05T02:37:29.406Z,32.60
2019-05-05T02:40:04.329Z,28.77
2019-05-05T02:42:35.472Z,36.33
2019-05-05T02:45:08.479Z,42.43
2019-05-05T02:47:45.108Z,28.80
2019-05-05T02:50:17.011Z,30.92
2019-05-05T02:52:48.390Z,29.55
2019-05-05T02:55:19.630Z,32.67
2019-05-05T02:57:51.175Z,32.83
2019-05-05T03:00:24.496Z,27.50
2019-05-05T03:02:57.679Z,38.23
2019-05-05T03:05:29.233Z,30.62
2019-05-05T03:08:00.496Z,30.62
2019-05-05T03:10:33.865Z,26.80
2019-05-05T03:13:05.026Z,35.85
2019-05-05T03:15:50.725Z,25.77
2019-05-05T03:18:24.564Z,33.58
2019-05-05T03:21:04.366Z,27.42
2019-05-05T03:23:28.652Z,25.45
2019-05-05T03:26:01.328Z,22.67
2019-05-05T03:28:40.397Z,30.72
2019-05-05T03:31:15.583Z,28.25
2019-05-05T03:33:46.372Z,27.15
2019-05-05T03:36:17.915Z,24.80
2019-05-05T03:38:49.990Z,24.12
2019-05-05T03:41:23.853Z,23.90
2019-05-05T03:44:09.792Z,17.20
2019-05-05T03:46:41.448Z,24.92
2019-05-05T03:49:13.980Z,15.78
2019-05-05T03:51:45.382Z,18.65
2019-05-05T03:54:16.932Z,14.95
2019-05-05T03:56:49.996Z,21.42
2019-05-05T03:59:21.795Z,19.80
2019-05-05T04:02:09.881Z,23.10
2019-05-05T04:04:46.037Z,19.82
2019-05-05T04:07:17.582Z,25.80
2019-05-05T04:09:50.443Z,22.82
2019-05-05T04:12:24.206Z,21.87
2019-05-05T04:14:55.604Z,18.37
2019-05-05T04:17:28.780Z,24.18
2019-05-05T04:20:03.800Z,24.85
2019-05-05T04:22:35.086Z,20.40
2019-05-05T04:25:06.651Z,20.77
2019-05-05T04:27:38.195Z,24.43
2019-05-05T04:30:09.700Z,27.30
2019-05-05T04:32:41.314Z,23.70
2019-05-05T04:35:14.054Z,27.82
2019-05-05T04:37:45.331Z,26.12
2019-05-05T04:40:16.919Z,30.68
2019-05-05T04:42:48.669Z,26.75
2019-05-05T04:45:20.659Z,31.60
2019-05-05T04:47:56.716Z,27.20
2019-05-05T04:50:37.186Z,23.35
2019-05-05T04:53:10.413Z,26.35
2019-05-05T04:55:44.282Z,21.15
2019-05-05T04:58:15.588Z,26.97
2019-05-05T05:00:47.480Z,22.50
2019-05-05T05:03:26.811Z,23.02
2019-05-05T05:06:00.266Z,25.62
2019-05-05T05:08:33.771Z,22.73
2019-05-05T05:11:05.813Z,20.43
2019-05-05T05:13:37.293Z,21.17
2019-05-05T05:16:08.853Z,23.98
2019-05-05T05:18:41.103Z,25.00
2019-05-05T05:21:14.656Z,23.47
2019-05-05T05:23:46.072Z,18.50
2019-05-05T05:26:17.774Z,17.27
2019-05-05T05:28:49.907Z,21.48
2019-05-05T05:31:24.334Z,23.20
2019-05-05T05:33:55.682Z,23.22
2019-05-05T05:36:27.246Z,22.40
2019-05-05T05:39:16.946Z,19.95
2019-05-05T05:41:49.260Z,27.17
2019-05-05T05:44:29.224Z,18.50
2019-05-05T05:47:05.726Z,19.52
2019-05-05T05:49:43.880Z,25.92
2019-05-05T05:52:19.082Z,16.75
2019-05-05T05:54:48.584Z,18.82
2019-05-05T05:57:19.950Z,16.23
2019-05-05T05:59:51.691Z,21.00
2019-05-05T06:02:24.215Z,16.80
2019-05-05T06:04:55.943Z,17.82
2019-05-05T06:07:27.618Z,12.15
2019-05-05T06:09:59.263Z,12.50
2019-05-05T06:12:31.035Z,11.60
2019-05-05T06:15:03.842Z,12.15
2019-05-05T06:17:35.136Z,12.90
2019-05-05T06:20:06.745Z,14.98
2019-05-05T06:22:38.212Z,7.45
2019-05-05T06:25:09.698Z,9.25
2019-05-05T06:27:41.088Z,9.43
2019-05-05T06:30:13.828Z,11.90
2019-05-05T06:32:45.774Z,5.70
2019-05-05T06:35:17.386Z,7.03
2019-05-05T06:37:54.758Z,4.75
2019-05-05T06:40:27.770Z,6.55
2019-05-05T06:43:07.057Z,8.03
2019-05-05T06:45:40.695Z,13.88
2019-05-05T06:48:13.570Z,4.08
2019-05-05T06:50:44.997Z,6.65
2019-05-05T06:53:16.417Z,13.18
2019-05-05T06:55:47.828Z,8.90
2019-05-05T06:58:19.216Z,9.38
2019-05-05T07:00:54.267Z,7.58
2019-05-05T07:03:25.608Z,9.43
2019-05-05T07:05:56.952Z,9.00
2019-05-05T07:08:29.063Z,6.60
2019-05-05T07:11:00.974Z,6.78
2019-05-05T07:13:33.936Z,8.78
2019-05-05T07:16:05.363Z,8.50
2019-05-05T07:18:36.694Z,8.05
2019-05-05T07:21:09.393Z,10.55
2019-05-05T07:23:40.743Z,11.18
2019-05-05T07:26:14.429Z,14.87
2019-05-05T07:28:47.022Z,7.17
2019-05-05T07:31:18.502Z,11.63
2019-05-05T07:33:50.500Z,6.75
2019-05-05T07:36:44.320Z,5.50
2019-05-05T07:39:14.810Z,7.28
2019-05-05T07:41:46.613Z,20.90
2019-05-05T07:44:28.325Z,9.55
2019-05-05T07:46:51.102Z,9.05
2019-05-05T07:49:24.348Z,11.03
2019-05-05T07:51:56.776Z,13.03
2019-05-05T07:54:28.521Z,9.53
2019-05-05T07:57:00.067Z,14.15
2019-05-05T07:59:33.989Z,10.80
2019-05-05T08:02:05.532Z,7.12
2019-05-05T08:04:37.101Z,10.80
2019-05-05T08:07:08.556Z,8.45
2019-05-05T08:09:40.938Z,11.22
2019-05-05T08:12:13.728Z,8.43
2019-05-05T08:14:46.938Z,9.50
2019-05-05T08:17:23.447Z,11.03
2019-05-05T08:19:56.289Z,10.18
2019-05-05T08:22:28.108Z,11.38
2019-05-05T08:25:12.028Z,6.67
2019-05-05T08:28:04.636Z,13.28
2019-05-05T08:30:37.671Z,11.70
2019-05-05T08:33:09.555Z,5.45
2019-05-05T08:35:41.128Z,16.85
2019-05-05T08:38:13.778Z,9.15
2019-05-05T08:40:46.120Z,7.53
2019-05-05T08:43:17.464Z,7.85
2019-05-05T08:45:50.915Z,8.60
2019-05-05T08:48:24.661Z,4.95
2019-05-05T08:50:56.970Z,13.72
2019-05-05T08:53:41.519Z,15.53
2019-05-05T08:58:36.106Z,8.88
2019-05-05T09:01:07.283Z,6.65
2019-05-05T09:03:38.516Z,7.55
2019-05-05T09:06:10.067Z,9.18
2019-05-05T09:08:41.563Z,4.95
2019-05-05T09:11:14.061Z,11.93
2019-05-05T09:13:45.662Z,10.03
2019-05-05T09:16:17.545Z,8.28
2019-05-05T09:18:59.040Z,9.68
2019-05-05T09:21:31.638Z,8.58
2019-05-05T09:24:24.853Z,9.03
2019-05-05T09:27:06.435Z,14.75
2019-05-05T09:29:39.511Z,8.90
2019-05-05T09:32:13.734Z,13.78
2019-05-05T09:34:45.770Z,9.68
2019-05-05T09:37:17.167Z,17.48
2019-05-05T09:39:48.615Z,12.23
2019-05-05T09:42:19.978Z,6.25
2019-05-05T09:44:54.179Z,5.08
2019-05-05T09:47:25.335Z,3.77
2019-05-05T09:49:56.829Z,5.15
2019-05-05T09:52:28.449Z,8.35
2019-05-05T09:54:59.821Z,10.63
2019-05-05T09:57:31.157Z,8.83
2019-05-05T10:00:10.019Z,12.80
2019-05-05T10:02:41.348Z,8.23
2019-05-05T10:05:14.497Z,11.60
2019-05-05T10:07:46.094Z,6.75
2019-05-05T10:10:19.384Z,12.23
2019-05-05T10:12:52.446Z,5.85
2019-05-05T10:15:23.623Z,6.30
2019-05-05T10:17:55.182Z,6.65
2019-05-05T10:20:26.437Z,7.28
2019-05-05T10:22:57.784Z,12.13
2019-05-05T10:25:34.964Z,7.25
2019-05-05T10:28:06.433Z,11.45
2019-05-05T10:30:37.703Z,5.55
2019-05-05T10:33:09.234Z,8.75
2019-05-05T10:35:40.321Z,5.95
2019-05-05T10:38:11.679Z,8.08
2019-05-05T10:40:44.642Z,7.25
2019-05-05T10:43:15.979Z,8.13
2019-05-05T10:45:47.059Z,8.85
2019-05-05T10:48:18.367Z,13.20
2019-05-05T10:50:49.743Z,8.00
2019-05-05T10:53:21.311Z,12.35
2019-05-05T10:55:53.973Z,12.10
2019-05-05T10:58:26.524Z,7.80
2019-05-05T11:01:00.028Z,3.05
2019-05-05T11:03:31.754Z,5.45
2019-05-05T11:06:04.488Z,7.42
2019-05-05T11:08:36.246Z,6.92
2019-05-05T11:11:07.864Z,9.88
2019-05-05T11:13:42.732Z,14.95
2019-05-05T11:16:14.653Z,7.75
2019-05-05T11:18:47.640Z,5.55
2019-05-05T11:21:19.200Z,4.35
2019-05-05T11:23:51.234Z,7.00
2019-05-05T11:26:24.546Z,4.22
2019-05-05T11:28:55.881Z,8.08
2019-05-05T11:31:27.437Z,7.47
2019-05-05T11:34:00.776Z,10.18
2019-05-05T11:36:36.837Z,9.30
2019-05-05T11:39:08.676Z,11.50
2019-05-05T11:41:44.056Z,10.48
2019-05-05T11:44:16.826Z,10.43
2019-05-05T11:46:51.370Z,9.00
2019-05-05T11:49:24.438Z,8.93
2019-05-05T11:51:56.723Z,9.85
2019-05-05T11:54:28.989Z,8.83
2019-05-05T11:57:00.871Z,9.18
2019-05-05T11:59:32.868Z,12.58
2019-05-05T12:02:05.617Z,6.60
2019-05-05T12:04:37.236Z,12.13
2019-05-05T12:07:09.306Z,6.45
2019-05-05T12:09:44.423Z,13.45
2019-05-05T12:12:16.213Z,24.87
2019-05-05T12:14:48.301Z,13.62
2019-05-05T12:17:35.384Z,13.98
2019-05-05T12:20:08.350Z,11.93
2019-05-05T12:22:41.496Z,5.08
2019-05-05T12:25:30.695Z,9.73
2019-05-05T12:28:06.927Z,12.53
2019-05-05T12:30:38.581Z,7.50
2019-05-05T12:33:10.299Z,8.18
2019-05-05T12:35:41.676Z,7.65
2019-05-05T12:38:12.974Z,8.98
2019-05-05T12:40:44.347Z,7.05
2019-05-05T12:43:16.055Z,6.42
2019-05-05T12:45:58.170Z,7.42
2019-05-05T12:48:37.469Z,9.15
2019-05-05T12:51:08.761Z,9.20
2019-05-05T12:53:41.214Z,12.85
2019-05-05T12:56:14.570Z,8.10
2019-05-05T12:58:47.107Z,6.83
2019-05-05T13:01:24.558Z,12.03
2019-05-05T13:03:55.920Z,4.05
2019-05-05T13:06:27.164Z,8.15
2019-05-05T13:08:58.491Z,5.67
2019-05-05T13:11:29.838Z,9.63
2019-05-05T13:14:03.514Z,19.30
2019-05-05T13:16:35.002Z,11.57
2019-05-05T13:19:08.441Z,7.35
2019-05-05T13:21:54.232Z,10.47
2019-05-05T13:24:31.196Z,5.30
2019-05-05T13:27:10.284Z,6.28
2019-05-05T13:29:39.092Z,6.40
2019-05-05T13:32:10.440Z,5.15
2019-05-05T13:34:43.886Z,7.12
2019-05-05T13:37:15.383Z,11.57
2019-05-05T13:39:47.968Z,11.15
2019-05-05T13:42:19.529Z,10.20
2019-05-05T13:45:07.937Z,9.03
2019-05-05T13:47:39.834Z,10.95
2019-05-05T13:50:15.623Z,8.78
2019-05-05T13:52:47.729Z,8.38
2019-05-05T13:55:19.921Z,5.75
2019-05-05T13:57:51.163Z,7.75
2019-05-05T14:00:22.552Z,6.17
2019-05-05T14:02:54.506Z,6.85
2019-05-05T14:05:26.739Z,8.25
2019-05-05T14:07:58.908Z,6.75
2019-05-05T14:10:30.354Z,12.35
2019-05-05T14:13:03.741Z,7.67
2019-05-05T14:15:34.830Z,6.78
2019-05-05T14:18:06.186Z,5.00
2019-05-05T14:20:38.717Z,9.23
2019-05-05T14:23:09.889Z,4.03
2019-05-05T14:25:41.519Z,2.55
2019-05-05T14:28:14.138Z,2.33
2019-05-05T14:30:58.946Z,5.20
2019-05-05T14:33:34.030Z,7.75
2019-05-05T14:36:09.949Z,8.08
2019-05-05T14:38:46.011Z,11.73
2019-05-05T14:41:17.565Z,8.90
2019-05-05T14:43:49.126Z,7.15
2019-05-05T14:46:23.375Z,8.58
2019-05-05T14:48:54.359Z,7.42
2019-05-05T14:51:25.639Z,11.73
2019-05-05T14:53:57.289Z,9.23
2019-05-05T14:56:36.149Z,11.97
2019-05-05T14:59:03.589Z,17.07
2019-05-05T15:01:34.560Z,10.08
2019-05-05T15:04:05.861Z,8.18
2019-05-05T15:06:38.647Z,7.55
2019-05-05T15:09:13.768Z,8.28
2019-05-05T15:11:53.853Z,4.75
2019-05-05T15:14:26.420Z,7.55
2019-05-05T15:16:57.963Z,7.92
2019-05-05T15:19:29.604Z,7.22
2019-05-05T15:22:01.243Z,5.17
2019-05-05T15:24:33.595Z,3.55
2019-05-05T15:27:04.932Z,11.20
2019-05-05T15:29:36.544Z,4.08
2019-05-05T15:32:07.994Z,4.50
2019-05-05T15:34:39.104Z,3.70
2019-05-05T15:37:10.698Z,4.03
2019-05-05T15:39:41.809Z,5.42
2019-05-05T15:42:13.589Z,8.85
2019-05-05T15:44:44.839Z,4.35
2019-05-05T15:47:16.393Z,2.50
2019-05-05T15:49:47.636Z,4.47
2019-05-05T15:52:20.211Z,8.48
2019-05-05T15:54:51.667Z,5.28
2019-05-05T15:57:24.103Z,4.12
2019-05-05T15:59:55.592Z,12.95
2019-05-05T16:02:26.940Z,5.75
2019-05-05T16:04:58.682Z,4.62
2019-05-05T16:07:30.251Z,6.05
2019-05-05T16:10:01.397Z,8.10
2019-05-05T16:12:36.506Z,3.85
2019-05-05T16:15:25.517Z,3.80
2019-05-05T16:18:14.766Z,5.15
2019-05-05T16:20:47.569Z,3.75
2019-05-05T16:23:36.701Z,6.75
2019-05-05T16:26:08.611Z,5.85
2019-05-05T16:28:39.726Z,5.83
2019-05-05T16:31:14.413Z,7.75
2019-05-05T16:33:45.085Z,6.10
2019-05-05T16:36:16.519Z,7.22
2019-05-05T16:38:47.909Z,5.75
2019-05-05T16:41:19.431Z,5.80
2019-05-05T16:43:50.774Z,4.50
2019-05-05T16:46:23.879Z,7.03
2019-05-05T16:48:55.311Z,4.97
2019-05-05T16:51:27.889Z,6.72
2019-05-05T16:54:00.855Z,7.42
2019-05-05T16:56:33.643Z,6.00
2019-05-05T16:59:04.810Z,4.50
2019-05-05T17:01:36.265Z,5.75
2019-05-05T17:04:11.426Z,5.42
2019-05-05T17:06:40.913Z,6.15
2019-05-05T17:09:14.782Z,3.37
2019-05-05T17:11:46.677Z,8.08
2019-05-05T17:14:19.766Z,3.77
2019-05-05T17:17:07.836Z,5.53
2019-05-05T17:19:40.760Z,10.10
2019-05-05T17:22:13.911Z,6.65
2019-05-05T17:24:45.193Z,10.18
2019-05-05T17:27:16.724Z,13.93
2019-05-05T17:29:48.357Z,10.68
2019-05-05T17:32:19.714Z,7.17
2019-05-05T17:34:50.755Z,19.32
2019-05-05T17:37:23.928Z,7.87
2019-05-05T17:39:56.626Z,10.78
2019-05-05T17:42:34.638Z,6.33
2019-05-05T17:45:19.892Z,5.80
2019-05-05T17:47:53.934Z,9.53
2019-05-05T17:50:26.712Z,9.30
2019-05-05T17:53:05.435Z,5.30
2019-05-05T17:55:39.452Z,7.12
2019-05-05T17:58:10.634Z,7.95
2019-05-05T18:00:47.158Z,6.97
2019-05-05T18:03:19.245Z,7.50
2019-05-05T18:05:55.301Z,5.67
2019-05-05T18:08:36.705Z,3.60
2019-05-05T18:11:21.459Z,5.53
2019-05-05T18:14:11.034Z,9.10
2019-05-05T18:16:44.639Z,10.75
2019-05-05T18:19:15.477Z,7.42
2019-05-05T18:21:46.828Z,6.70
2019-05-05T18:24:18.081Z,10.98
2019-05-05T18:26:49.532Z,10.20
2019-05-05T18:29:20.816Z,5.70
2019-05-05T18:31:53.738Z,7.20
2019-05-05T18:34:25.938Z,11.15
2019-05-05T18:36:57.307Z,17.12
2019-05-05T18:39:29.202Z,8.28
2019-05-05T18:42:05.013Z,7.58
2019-05-05T18:44:38.101Z,6.83
2019-05-05T18:47:18.519Z,6.25
2019-05-05T18:49:49.907Z,4.58
2019-05-05T18:52:24.439Z,6.00
2019-05-05T18:54:54.679Z,8.70
2019-05-05T18:57:25.799Z,6.42
2019-05-05T18:59:56.946Z,4.12
2019-05-05T19:02:39.146Z,6.20
2019-05-05T19:05:28.827Z,10.03
2019-05-05T19:08:01.930Z,3.37
2019-05-05T19:10:33.727Z,2.55
2019-05-05T19:13:04.908Z,5.67
2019-05-05T19:15:35.994Z,5.45
2019-05-05T19:18:07.221Z,6.10
2019-05-05T19:20:46.034Z,5.30
2019-05-05T19:23:17.085Z,5.97
2019-05-05T19:25:49.811Z,7.35
2019-05-05T19:28:20.739Z,4.92
2019-05-05T19:30:51.766Z,9.65
2019-05-05T19:33:24.623Z,8.20
2019-05-05T19:35:55.766Z,6.40
2019-05-05T19:38:27.099Z,4.42
2019-05-05T19:40:58.517Z,5.70
2019-05-05T19:43:29.767Z,3.42
2019-05-05T19:46:01.274Z,8.10
2019-05-05T19:48:33.997Z,3.58
2019-05-05T19:51:06.788Z,5.37
2019-05-05T19:53:38.307Z,5.87
2019-05-05T19:56:09.667Z,4.17
2019-05-05T19:58:54.264Z,3.58
2019-05-05T20:01:13.898Z,15.60
2019-05-05T20:03:45.517Z,8.10
2019-05-05T20:06:16.599Z,5.97
2019-05-05T20:08:47.643Z,6.62
2019-05-05T20:11:18.887Z,4.62
2019-05-05T20:14:03.913Z,8.00
2019-05-05T20:16:27.634Z,5.17
2019-05-05T20:18:58.768Z,8.20
2019-05-05T20:21:30.009Z,8.78
2019-05-05T20:24:03.591Z,5.28
2019-05-05T20:26:34.898Z,4.30
2019-05-05T20:29:13.962Z,10.18
2019-05-05T20:31:40.297Z,9.20
2019-05-05T20:34:24.202Z,9.48
2019-05-05T20:37:13.975Z,6.92
2019-05-05T20:39:44.520Z,9.48
2019-05-05T20:42:15.765Z,5.95
2019-05-05T20:44:47.121Z,7.45
2019-05-05T20:47:18.050Z,11.15
2019-05-05T20:49:49.621Z,11.18
2019-05-05T20:52:21.077Z,7.20
2019-05-05T20:54:53.750Z,6.28
2019-05-05T20:57:24.908Z,6.60
2019-05-05T20:59:55.845Z,6.10
2019-05-05T21:02:26.997Z,11.93
2019-05-05T21:04:58.494Z,12.95
2019-05-05T21:07:29.845Z,8.43
2019-05-05T21:10:00.838Z,8.48
2019-05-05T21:12:41.692Z,10.58
2019-05-05T21:15:07.054Z,7.92
2019-05-05T21:17:38.380Z,10.28
2019-05-05T21:20:09.623Z,8.23
2019-05-05T21:22:45.310Z,10.03
2019-05-05T21:25:33.919Z,7.40
2019-05-05T21:28:05.082Z,7.47
2019-05-05T21:30:36.330Z,12.78
2019-05-05T21:33:07.648Z,12.70
2019-05-05T21:35:39.282Z,9.80
2019-05-05T21:38:10.533Z,8.13
2019-05-05T21:40:43.976Z,8.88
2019-05-05T21:43:15.394Z,5.87
2019-05-05T21:45:46.526Z,9.28
2019-05-05T21:48:17.781Z,9.38
2019-05-05T21:50:59.948Z,8.30
2019-05-05T21:53:35.279Z,8.30
2019-05-05T21:56:08.184Z,7.95
2019-05-05T21:58:41.021Z,8.35
2019-05-05T22:01:14.850Z,8.68
2019-05-05T22:03:46.434Z,5.17
2019-05-05T22:06:17.661Z,6.58
2019-05-05T22:08:48.871Z,9.75
2019-05-05T22:11:20.184Z,6.47
2019-05-05T22:13:53.792Z,6.97
2019-05-05T22:16:24.324Z,8.33
2019-05-05T22:18:55.797Z,6.50
2019-05-05T22:21:37.781Z,9.33
2019-05-05T22:24:22.300Z,5.62
2019-05-05T22:26:54.304Z,10.53
2019-05-05T22:29:25.421Z,8.25
2019-05-05T22:31:56.802Z,5.72
2019-05-05T22:34:27.747Z,9.60
2019-05-05T22:36:58.687Z,6.10
2019-05-05T22:39:30.119Z,7.67
2019-05-05T22:42:01.513Z,11.55
2019-05-05T22:44:33.917Z,7.33
2019-05-05T22:47:05.162Z,10.30
2019-05-05T22:49:36.552Z,6.50
2019-05-05T22:52:07.842Z,9.28
2019-05-05T22:54:39.126Z,12.70
2019-05-05T22:57:10.568Z,7.05
2019-05-05T22:59:41.898Z,4.97
2019-05-05T23:02:14.971Z,3.95
2019-05-05T23:04:47.841Z,7.20
2019-05-05T23:07:20.749Z,7.17
2019-05-05T23:09:53.897Z,6.15
2019-05-05T23:12:25.984Z,5.62
2019-05-05T23:14:57.291Z,6.47
2019-05-05T23:17:46.436Z,4.90
2019-05-05T23:20:46.006Z,7.17
2019-05-05T23:23:34.282Z,7.10
2019-05-05T23:26:07.399Z,8.75
2019-05-05T23:28:38.503Z,10.20
2019-05-05T23:31:10.102Z,5.28
2019-05-05T23:33:41.030Z,11.60
2019-05-05T23:36:14.656Z,6.42
2019-05-05T23:38:45.612Z,7.33
2019-05-05T23:41:17.049Z,6.65
2019-05-05T23:43:47.982Z,11.57
2019-05-05T23:46:19.442Z,12.55
2019-05-05T23:48:50.486Z,7.92
2019-05-05T23:51:21.533Z,8.23
2019-05-05T23:53:54.844Z,7.15
2019-05-05T23:56:25.779Z,6.70
2019-05-05T23:58:57.729Z,5.83
